Cagayan De Oro, Philippines
Current Conditions -  °F | °C
As of 11:00 AM on Friday 31 Oct 2014 (Local Time) from RPMD Reporting Station
Haze Haze  
Wind Chill: 88°   Ceiling: 29000
Heat Index: 98°   Visibility: 2.9mi
Dew Point: 75°   Wind: 10mph
Humidity: 66%   Direction: 40°NE
Pressure: 29.74"   Gusts: NA
Location:  8.45342°N, 124.6191°E
Report Text: RPMD 310300Z 04009KT 4700 HZ FEW016 BKN290 31/24 Q1007 RMK A2974
Loading
Personal Weather Stations






























Interactive Weather Map
Tropical Storm Tracking
New forecast layout! Learn more

10-Day Weather Forecast

Advertisements
Track Severe Weather on mobile